Time;durP1;ratioP1;P1;durP2;ratioP2;P2;SDS_P1;SDS_P2;PMS_P1;PMS_P2;Temp;Humidity;BMP_temperature;BMP_pressure;BME280_temperature;BME280_humidity;BME280_pressure;Samples;Min_cycle;Max_cycle;Signal;HPM_P1;HPM_P2
2021/09/01 00:01:31;;;;;;;5.60;4.35;;;18.10;67.00;;;;;;5015794;28;20193;-91
2021/09/01 00:04:08;;;;;;;12.13;4.40;;;18.10;67.10;;;;;;5035286;28;20297;-91
2021/09/01 00:10:43;;;;;;;15.05;5.78;;;18.30;66.80;;;;;;5035742;28;20190;-91
2021/09/01 00:13:09;;;;;;;9.25;4.93;;;18.40;66.50;;;;;;5014116;28;20199;-91
2021/09/01 00:15:35;;;;;;;11.63;4.32;;;18.40;66.30;;;;;;5034997;28;20175;-91
2021/09/01 00:18:01;;;;;;;19.25;5.20;;;18.50;66.40;;;;;;5018335;28;20170;-91
2021/09/01 00:20:27;;;;;;;10.57;5.18;;;18.40;66.20;;;;;;5034738;28;20185;-91
2021/09/01 00:22:54;;;;;;;8.03;4.50;;;18.30;66.30;;;;;;5034132;28;20214;-91
2021/09/01 00:28:45;;;;;;;12.50;5.03;;;18.30;66.50;;;;;;5035348;28;20166;-91
2021/09/01 00:31:11;;;;;;;17.17;4.60;;;18.30;66.50;;;;;;5033940;28;20182;-91
2021/09/01 00:33:38;;;;;;;8.55;4.18;;;18.30;66.70;;;;;;5033960;28;20309;-91
2021/09/01 00:36:04;;;;;;;11.13;4.90;;;18.20;66.40;;;;;;5034324;28;20250;-92
2021/09/01 00:38:30;;;;;;;14.30;4.10;;;18.20;66.70;;;;;;5020898;28;20561;-92
2021/09/01 00:40:57;;;;;;;10.43;4.13;;;18.20;66.50;;;;;;5014156;28;20593;-93
2021/09/01 00:43:23;;;;;;;12.73;5.72;;;18.30;66.70;;;;;;5013574;28;20218;-92
2021/09/01 00:45:51;;;;;;;7.40;4.10;;;18.20;66.50;;;;;;5013743;28;20174;-92
2021/09/01 00:48:22;;;;;;;9.20;4.43;;;18.30;66.80;;;;;;5015438;28;20183;-91
2021/09/01 00:50:52;;;;;;;16.10;4.30;;;18.40;66.40;;;;;;5013644;28;20217;-90
2021/09/01 00:53:30;;;;;;;11.05;4.25;;;18.40;66.20;;;;;;5013306;28;20203;-91
2021/09/01 00:56:20;;;;;;;11.75;4.30;;;18.30;66.40;;;;;;5015626;28;20190;-90
2021/09/01 00:58:46;;;;;;;9.60;3.65;;;18.40;66.50;;;;;;5013783;28;20596;-90
2021/09/01 01:01:15;;;;;;;7.28;3.35;;;18.40;66.40;;;;;;5015332;28;20269;-90
2021/09/01 01:03:56;;;;;;;9.13;4.10;;;18.30;66.30;;;;;;5014061;28;20214;-91
2021/09/01 01:06:36;;;;;;;13.70;4.25;;;18.30;66.60;;;;;;5015310;28;20186;-91
2021/09/01 01:09:35;;;;;;;11.35;4.30;;;18.40;66.40;;;;;;5033589;28;20205;-91
2021/09/01 01:12:11;;;;;;;12.18;5.40;;;18.40;66.20;;;;;;5039378;28;20162;-91
2021/09/01 01:15:00;;;;;;;8.73;4.03;;;18.40;66.30;;;;;;5037701;28;20185;-91
2021/09/01 01:17:36;;;;;;;11.20;4.18;;;18.20;66.70;;;;;;5037048;28;20182;-91
2021/09/01 01:20:06;;;;;;;13.48;4.07;;;18.30;67.10;;;;;;5058950;28;20296;-92
2021/09/01 01:22:38;;;;;;;9.10;3.95;;;18.40;67.00;;;;;;5059092;28;20241;-91
2021/09/01 01:25:10;;;;;;;17.05;4.68;;;18.50;66.70;;;;;;5059950;28;20257;-91
2021/09/01 01:27:42;;;;;;;10.80;4.82;;;18.40;66.40;;;;;;5059773;28;20181;-91
2021/09/01 01:30:19;;;;;;;10.77;4.60;;;18.40;66.60;;;;;;5043136;28;20173;-91
2021/09/01 01:32:53;;;;;;;12.57;4.55;;;18.50;66.50;;;;;;5059510;28;20257;-91
2021/09/01 01:35:31;;;;;;;7.43;3.47;;;18.50;66.30;;;;;;5043310;28;20166;-90
2021/09/01 01:37:59;;;;;;;12.25;4.55;;;18.50;66.10;;;;;;5043293;28;20285;-89
2021/09/01 01:40:26;;;;;;;15.82;5.00;;;18.50;66.30;;;;;;5040141;28;20182;-91
2021/09/01 01:42:54;;;;;;;13.15;4.93;;;18.50;66.40;;;;;;5039970;28;20245;-92
2021/09/01 01:48:42;;;;;;;15.10;5.38;;;18.60;66.10;;;;;;5039546;28;20169;-90
2021/09/01 01:51:08;;;;;;;18.17;5.15;;;18.60;65.70;;;;;;5023577;28;20202;-90
2021/09/01 01:53:34;;;;;;;9.70;5.00;;;18.60;65.70;;;;;;5026652;28;20213;-90
2021/09/01 01:56:07;;;;;;;15.13;6.13;;;18.40;66.00;;;;;;5019459;28;20669;-92
2021/09/01 01:58:33;;;;;;;18.63;4.43;;;18.40;66.20;;;;;;5017490;28;20182;-91
2021/09/01 02:01:00;;;;;;;10.60;5.97;;;18.40;66.40;;;;;;5017773;28;20210;-91
2021/09/01 02:03:30;;;;;;;9.65;4.68;;;18.40;66.50;;;;;;5018387;28;20214;-91
2021/09/01 02:06:03;;;;;;;10.10;4.47;;;18.30;66.70;;;;;;5017795;28;20178;-91
2021/09/01 02:08:30;;;;;;;10.48;5.93;;;18.40;66.70;;;;;;5017318;28;20183;-91
2021/09/01 02:10:56;;;;;;;18.67;4.97;;;18.40;66.70;;;;;;5000100;28;20689;-90
2021/09/01 02:13:21;;;;;;;14.57;4.87;;;18.40;66.60;;;;;;5016339;28;20203;-92
2021/09/01 02:15:47;;;;;;;9.40;5.10;;;18.30;66.70;;;;;;5016787;28;20210;-91
2021/09/01 02:18:13;;;;;;;13.10;5.23;;;18.40;66.90;;;;;;5016145;28;20183;-91
2021/09/01 02:20:44;;;;;;;18.23;5.43;;;18.40;66.80;;;;;;5016374;28;20194;-90
2021/09/01 02:23:54;;;;;;;15.63;4.88;;;18.40;66.90;;;;;;5022303;28;20241;-91
2021/09/01 02:27:11;;;;;;;12.82;4.60;;;18.30;66.80;;;;;;5306055;22;20588;-92
2021/09/01 02:36:33;;;;;;;19.60;5.15;;;18.30;67.10;;;;;;5016731;28;20169;-91
2021/09/01 02:38:59;;;;;;;10.80;5.03;;;18.40;66.90;;;;;;4998580;28;20191;-91
2021/09/01 03:00:58;;;;;;;9.93;4.68;;;18.30;66.90;;;;;;4903324;29;20166;-92
2021/09/01 03:03:24;;;;;;;12.80;4.63;;;18.30;67.30;;;;;;4918520;29;20252;-92
2021/09/01 03:05:50;;;;;;;13.60;5.60;;;18.30;67.20;;;;;;4997884;28;20178;-92
2021/09/01 03:08:16;;;;;;;11.60;4.67;;;18.20;67.20;;;;;;4999258;28;20175;-91
2021/09/01 03:10:43;;;;;;;17.67;6.07;;;18.20;67.40;;;;;;4998533;28;20495;-92
2021/09/01 03:13:15;;;;;;;10.10;5.13;;;18.20;67.50;;;;;;4998221;28;20228;-92
2021/09/01 03:15:42;;;;;;;9.45;4.40;;;18.20;67.40;;;;;;4982595;28;20183;-92
2021/09/01 03:18:08;;;;;;;11.68;4.85;;;18.10;67.50;;;;;;4999377;28;20186;-92
2021/09/01 03:20:35;;;;;;;8.70;4.40;;;18.20;67.70;;;;;;5000636;28;20540;-91
2021/09/01 03:23:03;;;;;;;12.27;5.05;;;18.20;67.50;;;;;;5001253;28;20218;-92
2021/09/01 03:25:29;;;;;;;15.80;5.80;;;18.20;67.50;;;;;;5000212;28;20178;-91
2021/09/01 03:27:59;;;;;;;10.87;4.90;;;18.20;67.60;;;;;;5002874;28;20189;-91
2021/09/01 03:30:25;;;;;;;12.15;5.22;;;18.10;67.60;;;;;;4988239;28;20429;-91
2021/09/01 03:32:51;;;;;;;11.43;5.10;;;18.20;67.90;;;;;;4988592;28;20353;-90
2021/09/01 03:35:21;;;;;;;11.17;4.70;;;18.40;67.70;;;;;;5004508;28;20226;-90
2021/09/01 03:37:47;;;;;;;7.40;3.83;;;18.50;67.20;;;;;;5003771;28;20948;-90
2021/09/01 03:40:13;;;;;;;16.33;5.18;;;18.60;66.90;;;;;;5001084;28;20634;-90
2021/09/01 03:42:42;;;;;;;18.90;5.35;;;18.70;66.40;;;;;;5001226;28;20592;-90
2021/09/01 03:45:09;;;;;;;12.88;5.18;;;18.70;66.20;;;;;;5002522;28;20179;-91
2021/09/01 03:47:36;;;;;;;6.10;3.42;;;18.60;66.00;;;;;;5001236;28;20205;-91
2021/09/01 03:50:11;;;;;;;11.48;4.97;;;18.50;66.10;;;;;;5018129;28;20194;-91
2021/09/01 03:52:38;;;;;;;12.15;4.85;;;18.50;66.10;;;;;;4998931;28;20269;-91
2021/09/01 03:55:09;;;;;;;13.77;5.22;;;18.50;66.30;;;;;;4998602;28;20191;-91
2021/09/01 03:57:40;;;;;;;10.10;4.15;;;18.50;66.50;;;;;;4997368;28;20609;-92
2021/09/01 04:00:08;;;;;;;15.02;4.85;;;18.50;66.40;;;;;;4998114;28;20249;-91
2021/09/01 04:02:34;;;;;;;17.83;4.30;;;18.60;66.20;;;;;;4996887;28;20245;-91
2021/09/01 04:05:39;;;;;;;11.53;5.03;;;18.50;66.30;;;;;;4997041;28;20186;-91
2021/09/01 04:08:05;;;;;;;14.63;5.20;;;18.60;66.20;;;;;;4998829;28;20437;-89
2021/09/01 04:10:30;;;;;;;13.77;6.25;;;18.50;66.30;;;;;;4996911;28;20181;-91
2021/09/01 04:12:58;;;;;;;16.63;5.10;;;18.60;66.20;;;;;;5014688;28;20198;-91
2021/09/01 04:15:26;;;;;;;16.10;5.57;;;18.50;66.30;;;;;;4998336;28;20191;-92
2021/09/01 04:17:54;;;;;;;14.65;5.72;;;18.40;66.30;;;;;;4997790;28;20187;-92
2021/09/01 04:20:27;;;;;;;13.35;5.70;;;18.50;66.50;;;;;;5015450;28;20179;-92
2021/09/01 04:22:56;;;;;;;14.27;6.40;;;18.30;66.70;;;;;;4997425;28;20574;-92
2021/09/01 04:25:21;;;;;;;23.42;5.80;;;18.30;66.70;;;;;;4998240;28;20174;-93
2021/09/01 04:27:47;;;;;;;15.57;4.90;;;18.40;66.80;;;;;;4998454;28;20214;-93
2021/09/01 04:30:13;;;;;;;16.73;5.67;;;18.50;66.50;;;;;;4997970;28;20190;-92
2021/09/01 04:32:39;;;;;;;15.53;5.23;;;18.50;66.00;;;;;;4998212;28;20205;-92
2021/09/01 04:35:17;;;;;;;10.40;6.27;;;18.50;65.80;;;;;;4998132;28;20179;-91
2021/09/01 04:37:43;;;;;;;17.20;5.47;;;18.40;65.70;;;;;;4996754;28;20221;-91
2021/09/01 04:40:09;;;;;;;17.10;5.50;;;18.40;66.00;;;;;;4997540;28;20312;-93
2021/09/01 04:42:35;;;;;;;12.82;4.95;;;18.30;66.30;;;;;;4996993;28;20210;-93
2021/09/01 04:45:01;;;;;;;6.60;4.00;;;18.40;66.40;;;;;;4998118;28;20220;-93
2021/09/01 04:47:27;;;;;;;12.53;5.30;;;18.50;66.30;;;;;;5004009;28;20429;-93
2021/09/01 04:49:52;;;;;;;19.87;5.97;;;18.50;66.30;;;;;;5018557;28;20210;-93
2021/09/01 04:52:18;;;;;;;14.63;5.00;;;18.50;66.40;;;;;;5018055;28;20198;-92
2021/09/01 04:54:44;;;;;;;5.63;4.80;;;18.50;66.00;;;;;;5002883;28;20182;-92
2021/09/01 04:57:09;;;;;;;9.37;4.90;;;18.40;65.80;;;;;;5004265;28;20711;-93
2021/09/01 04:59:35;;;;;;;14.83;6.73;;;18.50;66.00;;;;;;5003435;28;20178;-93
2021/09/01 05:02:01;;;;;;;13.20;5.40;;;18.60;65.80;;;;;;5001512;28;20277;-93
2021/09/01 05:04:43;;;;;;;8.53;4.77;;;18.60;65.90;;;;;;5002546;28;20285;-92
2021/09/01 05:07:18;;;;;;;13.82;4.75;;;18.60;65.90;;;;;;5004889;28;20508;-93
2021/09/01 05:10:04;;;;;;;9.27;5.45;;;18.70;65.50;;;;;;5003866;28;20186;-93
2021/09/01 05:12:36;;;;;;;15.07;6.35;;;18.60;65.50;;;;;;5002745;28;20381;-92
2021/09/01 05:15:08;;;;;;;13.43;6.13;;;18.70;65.60;;;;;;5003383;28;20208;-92
2021/09/01 05:17:33;;;;;;;11.90;5.00;;;18.70;65.20;;;;;;5003936;28;20194;-89
2021/09/01 05:19:59;;;;;;;20.10;6.93;;;18.60;65.30;;;;;;5011432;28;20198;-91
2021/09/01 05:22:29;;;;;;;15.57;6.33;;;18.50;65.70;;;;;;5011128;28;20207;-91
2021/09/01 05:25:07;;;;;;;8.88;5.03;;;18.60;65.90;;;;;;5014805;28;20178;-90
2021/09/01 05:27:35;;;;;;;9.73;5.68;;;18.40;65.60;;;;;;5011211;28;20288;-90
2021/09/01 05:30:02;;;;;;;9.63;4.75;;;18.30;66.20;;;;;;5001658;28;20175;-91
2021/09/01 05:32:30;;;;;;;16.10;6.10;;;18.40;66.30;;;;;;4985267;28;20206;-91
2021/09/01 05:35:01;;;;;;;11.32;6.47;;;18.60;65.80;;;;;;5003198;28;20182;-90
2021/09/01 05:37:28;;;;;;;14.75;5.40;;;18.60;65.80;;;;;;5002505;28;20636;-90
2021/09/01 05:40:00;;;;;;;17.90;5.70;;;18.50;65.90;;;;;;5019458;28;20269;-91
2021/09/01 05:42:28;;;;;;;17.65;5.90;;;18.70;65.50;;;;;;5003613;28;20580;-90
2021/09/01 05:44:56;;;;;;;9.55;4.97;;;18.80;65.30;;;;;;5002072;28;20546;-90
2021/09/01 05:47:23;;;;;;;13.02;4.95;;;18.80;64.80;;;;;;5003262;28;20185;-92
2021/09/01 05:49:51;;;;;;;10.98;5.15;;;18.70;64.60;;;;;;5004236;28;20204;-92
2021/09/01 05:52:17;;;;;;;10.85;4.60;;;18.70;64.60;;;;;;5006012;28;20206;-91
2021/09/01 05:54:46;;;;;;;15.73;4.53;;;18.70;64.70;;;;;;5005666;28;20174;-91
2021/09/01 05:57:14;;;;;;;21.70;5.65;;;18.70;64.70;;;;;;5004032;28;20182;-89
2021/09/01 06:00:15;;;;;;;13.07;4.97;;;18.70;64.70;;;;;;5005206;28;20179;-90
2021/09/01 06:03:07;;;;;;;8.95;5.35;;;18.80;64.50;;;;;;5005134;28;20241;-91
2021/09/01 06:05:37;;;;;;;11.40;5.00;;;18.80;64.50;;;;;;5005719;28;20179;-91
2021/09/01 06:08:04;;;;;;;13.07;5.85;;;18.80;64.60;;;;;;5008355;28;20668;-90
2021/09/01 06:10:32;;;;;;;17.58;5.97;;;18.80;64.50;;;;;;5022425;28;20179;-91
2021/09/01 06:13:11;;;;;;;11.10;5.18;;;18.90;64.40;;;;;;5019847;28;20186;-90
2021/09/01 06:16:06;;;;;;;17.50;5.13;;;19.00;64.20;;;;;;5005160;28;20178;-91
2021/09/01 06:18:31;;;;;;;12.85;5.30;;;18.80;64.40;;;;;;5002819;28;20183;-92
2021/09/01 06:20:57;;;;;;;13.27;6.20;;;18.90;64.70;;;;;;5001226;28;20258;-90
2021/09/01 06:23:23;;;;;;;18.50;5.67;;;18.90;64.50;;;;;;5001495;28;20695;-91
2021/09/01 06:25:49;;;;;;;20.70;4.50;;;19.00;64.30;;;;;;5001558;28;20927;-90
2021/09/01 06:28:15;;;;;;;16.50;6.40;;;19.00;63.80;;;;;;5001094;28;20182;-90
2021/09/01 06:30:40;;;;;;;11.03;6.00;;;19.00;63.80;;;;;;5002325;28;20765;-90
2021/09/01 06:33:07;;;;;;;11.00;5.17;;;19.00;63.70;;;;;;5001899;28;20202;-90
2021/09/01 06:35:33;;;;;;;13.18;5.45;;;19.00;63.60;;;;;;5019687;28;20169;-92
2021/09/01 06:37:59;;;;;;;17.70;6.20;;;19.00;63.80;;;;;;5039388;28;20206;-90
2021/09/01 06:40:26;;;;;;;13.90;5.57;;;19.00;64.10;;;;;;5019723;28;20440;-91
2021/09/01 06:42:52;;;;;;;9.35;4.63;;;19.20;63.90;;;;;;5006127;28;20218;-91
2021/09/01 06:45:18;;;;;;;11.70;5.90;;;19.10;63.70;;;;;;5009224;28;20174;-91
2021/09/01 06:47:52;;;;;;;17.27;4.90;;;19.00;63.20;;;;;;5008650;28;20285;-91
2021/09/01 06:50:27;;;;;;;13.02;6.68;;;18.90;63.30;;;;;;5001497;28;20190;-91
2021/09/01 06:52:54;;;;;;;13.15;5.43;;;18.90;63.70;;;;;;4999848;28;20284;-90
2021/09/01 06:55:20;;;;;;;16.30;6.05;;;19.00;63.90;;;;;;5002036;28;20186;-91
2021/09/01 06:57:46;;;;;;;11.37;5.03;;;19.00;63.80;;;;;;5001335;28;20189;-90
2021/09/01 07:00:15;;;;;;;9.90;4.80;;;19.30;62.40;;;;;;5001804;28;20413;-90
2021/09/01 07:02:41;;;;;;;11.88;5.47;;;19.50;61.80;;;;;;5002531;28;20527;-90
2021/09/01 07:05:11;;;;;;;12.55;7.00;;;19.70;61.10;;;;;;5001949;28;20178;-91
2021/09/01 07:07:36;;;;;;;10.45;5.00;;;19.80;60.60;;;;;;5000724;28;20204;-90
2021/09/01 07:10:02;;;;;;;12.13;4.87;;;19.80;59.90;;;;;;5000438;28;20174;-90
2021/09/01 07:12:29;;;;;;;11.48;5.88;;;19.70;59.20;;;;;;5000145;28;20198;-90
2021/09/01 07:14:55;;;;;;;11.48;4.55;;;19.80;59.50;;;;;;5001869;28;20185;-90
2021/09/01 07:17:21;;;;;;;9.80;5.20;;;19.90;58.60;;;;;;5007772;28;20171;-91
2021/09/01 07:19:46;;;;;;;8.70;5.17;;;19.90;57.90;;;;;;5018612;28;20193;-90
2021/09/01 07:22:12;;;;;;;12.20;6.23;;;20.00;57.90;;;;;;5016701;28;20309;-91
2021/09/01 07:24:38;;;;;;;15.90;5.13;;;20.00;57.70;;;;;;5015219;28;20269;-90
2021/09/01 07:27:04;;;;;;;17.50;6.27;;;20.20;57.70;;;;;;5015389;28;20186;-90
2021/09/01 07:29:30;;;;;;;13.32;4.80;;;20.40;57.40;;;;;;5029855;28;20823;-90
2021/09/01 07:31:56;;;;;;;21.90;4.50;;;20.50;55.30;;;;;;5019363;28;20198;-90
2021/09/01 07:34:21;;;;;;;9.00;4.53;;;20.30;54.30;;;;;;5039148;28;20167;-90
2021/09/01 07:36:47;;;;;;;12.27;5.03;;;20.40;54.60;;;;;;5039139;28;20178;-92
2021/09/01 07:39:17;;;;;;;10.10;4.60;;;20.40;54.80;;;;;;5039042;28;20175;-93
2021/09/01 07:41:42;;;;;;;7.78;4.20;;;20.50;54.40;;;;;;5021140;28;20234;-89
2021/09/01 07:44:08;;;;;;;8.37;4.37;;;20.40;54.30;;;;;;5020678;28;20238;-91
2021/09/01 07:46:35;;;;;;;8.05;4.28;;;20.50;54.70;;;;;;5005200;28;20202;-91
2021/09/01 07:49:01;;;;;;;8.60;4.50;;;20.60;54.40;;;;;;5021250;28;20185;-90
2021/09/01 07:51:28;;;;;;;10.13;4.30;;;20.70;54.50;;;;;;5020975;28;20186;-90
2021/09/01 07:53:55;;;;;;;10.88;4.10;;;20.50;54.40;;;;;;5021031;28;20190;-92
2021/09/01 07:56:20;;;;;;;9.65;4.13;;;20.40;53.80;;;;;;5021111;28;20201;-91
2021/09/01 07:58:46;;;;;;;7.43;4.33;;;20.40;54.00;;;;;;5021090;28;20250;-90
2021/09/01 08:01:12;;;;;;;9.87;4.03;;;20.20;53.80;;;;;;5021031;28;20453;-91
2021/09/01 08:03:38;;;;;;;11.60;3.90;;;20.30;54.10;;;;;;5021127;28;20214;-93
2021/09/01 08:06:07;;;;;;;7.20;4.00;;;20.30;54.20;;;;;;5021080;28;20476;-92
2021/09/01 08:08:33;;;;;;;5.07;3.92;;;20.30;53.60;;;;;;5021106;28;20175;-91
2021/09/01 08:10:59;;;;;;;9.23;3.25;;;20.30;53.30;;;;;;5020441;28;20178;-90
2021/09/01 08:13:25;;;;;;;10.18;4.43;;;20.10;53.30;;;;;;5017016;28;20202;-91
2021/09/01 08:15:54;;;;;;;4.97;3.03;;;20.10;53.50;;;;;;5011185;28;20186;-91
2021/09/01 08:18:20;;;;;;;11.80;4.22;;;20.10;53.30;;;;;;5003460;28;20182;-91
2021/09/01 08:20:46;;;;;;;9.47;4.60;;;20.20;53.70;;;;;;5003038;28;20193;-91
2021/09/01 08:23:11;;;;;;;14.23;3.78;;;20.00;54.40;;;;;;5003375;28;20209;-91
2021/09/01 08:25:37;;;;;;;11.63;3.70;;;20.30;54.20;;;;;;5002188;28;20182;-91
2021/09/01 08:28:03;;;;;;;5.00;3.77;;;20.50;53.80;;;;;;5007815;28;20417;-90
2021/09/01 08:30:29;;;;;;;11.35;4.30;;;20.50;53.60;;;;;;5006453;28;20413;-90
2021/09/01 08:32:55;;;;;;;7.90;3.93;;;20.70;53.70;;;;;;5006470;28;20249;-90
2021/09/01 08:35:21;;;;;;;11.53;4.10;;;20.80;53.60;;;;;;5005382;28;20190;-89
2021/09/01 08:37:50;;;;;;;10.53;4.80;;;21.00;53.40;;;;;;5004285;28;20935;-90
2021/09/01 08:40:16;;;;;;;11.30;4.40;;;20.90;53.30;;;;;;5003214;28;20237;-91
2021/09/01 08:42:43;;;;;;;6.30;4.17;;;21.00;53.10;;;;;;5002560;28;20828;-90
2021/09/01 08:45:10;;;;;;;6.63;3.70;;;21.10;52.90;;;;;;5002652;28;20412;-90
2021/09/01 08:47:39;;;;;;;8.13;3.85;;;21.10;52.80;;;;;;5004030;28;20440;-90
2021/09/01 08:50:12;;;;;;;5.70;4.07;;;21.10;53.20;;;;;;5004236;28;20191;-91
2021/09/01 08:52:38;;;;;;;10.50;4.33;;;21.20;52.80;;;;;;5001931;28;20529;-91
2021/09/01 08:55:10;;;;;;;7.27;4.07;;;21.10;52.50;;;;;;5003528;28;20492;-90
2021/09/01 08:57:36;;;;;;;9.25;4.32;;;21.10;52.70;;;;;;5003943;28;20429;-91
2021/09/01 09:00:04;;;;;;;12.90;5.17;;;20.90;52.90;;;;;;5003142;28;20522;-91
2021/09/01 09:02:31;;;;;;;8.15;4.47;;;20.50;54.00;;;;;;5003909;28;20202;-91
2021/09/01 09:04:58;;;;;;;12.10;5.32;;;20.50;54.60;;;;;;5003994;28;20266;-91
2021/09/01 09:07:24;;;;;;;11.55;4.30;;;20.40;54.60;;;;;;5002796;28;20174;-90
2021/09/01 09:09:51;;;;;;;9.30;4.43;;;20.40;55.00;;;;;;5004866;28;20179;-90
2021/09/01 09:12:28;;;;;;;8.05;3.85;;;20.50;54.90;;;;;;5003658;28;20206;-91
2021/09/01 09:14:54;;;;;;;12.45;5.38;;;20.50;54.80;;;;;;5004176;28;20182;-90
2021/09/01 09:17:21;;;;;;;11.63;4.65;;;20.70;54.10;;;;;;5006114;28;20201;-91
2021/09/01 09:19:55;;;;;;;9.18;4.50;;;20.70;53.70;;;;;;5004352;28;20202;-91
2021/09/01 09:22:26;;;;;;;8.13;4.22;;;20.50;54.40;;;;;;5005146;28;20216;-91
2021/09/01 09:25:11;;;;;;;9.70;5.88;;;20.40;55.50;;;;;;5008913;28;20170;-89
2021/09/01 09:27:47;;;;;;;14.02;5.45;;;20.40;55.00;;;;;;5009213;28;20232;-90
2021/09/01 09:30:37;;;;;;;8.15;4.88;;;20.40;55.10;;;;;;5017402;28;20201;-90
2021/09/01 09:33:05;;;;;;;7.18;4.88;;;20.60;55.00;;;;;;5023504;28;20200;-90
2021/09/01 09:35:50;;;;;;;11.75;4.72;;;20.70;54.30;;;;;;5023849;28;20228;-92
2021/09/01 09:38:28;;;;;;;5.38;3.65;;;20.70;54.40;;;;;;5022538;28;20174;-91
2021/09/01 09:40:55;;;;;;;10.50;4.60;;;21.10;53.50;;;;;;5023720;28;20209;-90
2021/09/01 09:43:22;;;;;;;9.67;4.73;;;21.50;52.60;;;;;;5023368;28;20491;-91
2021/09/01 09:45:57;;;;;;;8.67;4.37;;;21.60;51.60;;;;;;5023802;28;20420;-92
2021/09/01 09:48:28;;;;;;;11.80;4.50;;;22.00;51.20;;;;;;5023693;28;20444;-91
2021/09/01 09:50:54;;;;;;;7.63;3.90;;;22.00;49.90;;;;;;5023456;28;20464;-92
2021/09/01 09:53:53;;;;;;;9.03;4.13;;;21.90;49.40;;;;;;5023259;28;20457;-93
2021/09/01 09:56:23;;;;;;;6.47;3.87;;;21.80;49.10;;;;;;5023535;28;20421;-92
2021/09/01 09:58:54;;;;;;;15.43;4.73;;;21.80;49.20;;;;;;5039779;28;20424;-91
2021/09/01 10:01:22;;;;;;;7.40;4.60;;;21.60;49.40;;;;;;5039613;28;20417;-92
2021/09/01 10:03:50;;;;;;;6.80;4.77;;;21.70;49.60;;;;;;5023308;28;20476;-90
2021/09/01 10:06:17;;;;;;;10.60;4.43;;;21.80;49.50;;;;;;5023220;28;20409;-90
2021/09/01 10:08:52;;;;;;;6.97;2.97;;;21.80;50.00;;;;;;5023115;28;20440;-91
2021/09/01 10:11:20;;;;;;;5.20;3.57;;;21.80;49.70;;;;;;5040348;28;20404;-90
2021/09/01 10:13:49;;;;;;;6.53;3.90;;;21.90;49.60;;;;;;5022990;28;20426;-92
2021/09/01 10:16:21;;;;;;;7.80;3.53;;;22.20;48.90;;;;;;5022894;28;20421;-92
2021/09/01 10:19:07;;;;;;;8.23;4.53;;;22.10;48.20;;;;;;5023093;28;20441;-89
2021/09/01 10:21:40;;;;;;;6.60;3.97;;;22.00;48.00;;;;;;5040092;28;20401;-91
2021/09/01 10:24:21;;;;;;;8.53;4.10;;;22.10;48.40;;;;;;5022815;28;20477;-91
2021/09/01 10:27:32;;;;;;;6.40;3.13;;;22.00;48.30;;;;;;5022486;28;20418;-90
2021/09/01 10:30:08;;;;;;;6.33;3.77;;;22.20;48.30;;;;;;5020049;28;20429;-90
2021/09/01 10:32:47;;;;;;;5.57;3.87;;;22.20;48.60;;;;;;5022612;28;20493;-92
2021/09/01 10:35:33;;;;;;;6.70;3.90;;;22.00;48.80;;;;;;5022725;28;20436;-92
2021/09/01 10:38:04;;;;;;;7.60;3.83;;;21.80;48.40;;;;;;5022324;28;20429;-90
2021/09/01 10:40:31;;;;;;;12.40;3.97;;;21.90;49.00;;;;;;5022542;28;20524;-91
2021/09/01 10:43:02;;;;;;;11.70;4.13;;;21.90;49.20;;;;;;5022081;28;20469;-91
2021/09/01 10:45:31;;;;;;;8.80;4.40;;;22.00;49.20;;;;;;5013185;28;20414;-91
2021/09/01 10:48:09;;;;;;;4.67;3.00;;;22.20;49.70;;;;;;5001049;28;20417;-91
2021/09/01 10:50:38;;;;;;;4.83;4.10;;;22.30;49.10;;;;;;5001188;28;20439;-91
2021/09/01 10:53:21;;;;;;;7.00;3.90;;;22.30;48.30;;;;;;4999846;28;20435;-91
2021/09/01 10:55:58;;;;;;;4.57;3.70;;;22.30;47.50;;;;;;5001622;28;20432;-90
2021/09/01 10:58:44;;;;;;;8.30;4.50;;;22.20;47.90;;;;;;5017888;28;20448;-90
2021/09/01 11:01:22;;;;;;;4.30;3.50;;;22.20;48.00;;;;;;4992882;28;20786;-90
2021/09/01 11:04:03;;;;;;;4.00;3.37;;;21.80;48.60;;;;;;4980775;28;20493;-90
2021/09/01 11:06:34;;;;;;;6.63;4.30;;;21.90;48.70;;;;;;4998039;28;20382;-90
2021/09/01 11:09:14;;;;;;;11.37;4.00;;;21.80;49.10;;;;;;4996564;28;20418;-90
2021/09/01 11:11:50;;;;;;;6.65;4.20;;;21.80;49.10;;;;;;5000230;28;20425;-90
2021/09/01 11:14:52;;;;;;;4.67;3.77;;;21.60;49.10;;;;;;5002495;28;20246;-89
2021/09/01 11:17:24;;;;;;;6.87;4.30;;;21.50;49.40;;;;;;5005324;28;20425;-90
2021/09/01 11:19:54;;;;;;;7.80;3.80;;;21.40;50.10;;;;;;4998447;28;20454;-90
2021/09/01 11:22:26;;;;;;;5.65;3.80;;;21.60;50.00;;;;;;4981972;28;20489;-90
2021/09/01 11:25:03;;;;;;;8.03;3.90;;;21.90;49.20;;;;;;4998428;28;20217;-89
2021/09/01 11:27:30;;;;;;;7.70;4.13;;;22.30;48.70;;;;;;5018572;28;20434;-90
2021/09/01 11:30:08;;;;;;;5.93;3.47;;;22.30;48.20;;;;;;5001604;28;20458;-91
2021/09/01 11:32:34;;;;;;;4.10;3.70;;;22.30;47.70;;;;;;4995539;28;20526;-89
2021/09/01 11:35:02;;;;;;;5.40;3.20;;;22.40;47.40;;;;;;5003870;28;20417;-91
2021/09/01 11:37:28;;;;;;;4.50;3.43;;;22.60;47.00;;;;;;5002928;28;20417;-91
2021/09/01 11:39:54;;;;;;;6.10;3.60;;;22.70;46.60;;;;;;5005082;28;20409;-91
2021/09/01 11:42:20;;;;;;;9.10;3.93;;;22.60;46.50;;;;;;5004325;28;20670;-92
2021/09/01 11:45:10;;;;;;;7.53;3.60;;;22.70;47.00;;;;;;5005892;28;20175;-92
2021/09/01 11:47:43;;;;;;;14.13;3.60;;;22.40;47.20;;;;;;5003869;28;20179;-92
2021/09/01 11:50:10;;;;;;;14.67;3.80;;;22.40;47.50;;;;;;5009077;28;20433;-90
2021/09/01 11:52:36;;;;;;;9.37;3.67;;;22.30;48.00;;;;;;5014833;28;20422;-91
2021/09/01 11:55:05;;;;;;;8.33;4.13;;;22.10;48.20;;;;;;5012420;28;20417;-92
2021/09/01 11:57:32;;;;;;;8.73;4.63;;;21.90;48.90;;;;;;5004878;28;20182;-92
2021/09/01 12:00:06;;;;;;;5.97;3.87;;;21.80;49.50;;;;;;5002593;28;20428;-92
2021/09/01 12:02:32;;;;;;;10.97;4.40;;;22.20;49.50;;;;;;5002775;28;20867;-92
2021/09/01 12:05:07;;;;;;;5.93;3.50;;;22.00;48.50;;;;;;5003151;28;20406;-92
2021/09/01 12:07:37;;;;;;;8.30;4.40;;;21.90;48.80;;;;;;5003083;28;20413;-92
2021/09/01 12:10:08;;;;;;;8.63;3.73;;;21.80;49.00;;;;;;5003083;28;20417;-92
2021/09/01 12:12:35;;;;;;;13.40;4.00;;;21.70;49.40;;;;;;5003994;28;20509;-91
2021/09/01 12:15:19;;;;;;;6.67;3.60;;;21.60;49.40;;;;;;5004232;28;20421;-92
2021/09/01 12:18:05;;;;;;;11.30;3.67;;;21.60;49.40;;;;;;5003948;28;20523;-92
2021/09/01 12:20:36;;;;;;;6.03;2.60;;;21.60;49.60;;;;;;5004224;28;20417;-91
2021/09/01 12:23:14;;;;;;;7.30;3.70;;;21.70;50.10;;;;;;5006615;28;20511;-92
2021/09/01 12:25:39;;;;;;;7.40;3.50;;;21.70;49.80;;;;;;5006525;28;20441;-91
2021/09/01 12:28:10;;;;;;;7.60;3.10;;;21.80;49.90;;;;;;5005491;28;20484;-91
2021/09/01 12:30:39;;;;;;;9.03;3.20;;;21.90;50.10;;;;;;5009160;28;20421;-92
2021/09/01 12:33:10;;;;;;;7.40;4.10;;;22.10;49.50;;;;;;5010611;28;20541;-91
2021/09/01 12:35:36;;;;;;;11.97;3.67;;;22.00;49.10;;;;;;5007731;28;20473;-92
2021/09/01 12:38:06;;;;;;;8.83;3.63;;;22.00;49.40;;;;;;4999786;28;20932;-92
2021/09/01 12:40:39;;;;;;;7.77;3.50;;;22.00;49.30;;;;;;5000121;28;20179;-91
2021/09/01 12:43:07;;;;;;;9.50;3.53;;;21.90;49.10;;;;;;4999839;28;20497;-91
2021/09/01 12:45:35;;;;;;;5.30;3.27;;;21.90;49.50;;;;;;5001029;28;20417;-92
2021/09/01 12:48:05;;;;;;;6.00;3.40;;;21.70;49.60;;;;;;5001628;28;20425;-92
2021/09/01 12:50:44;;;;;;;5.10;3.33;;;21.50;50.10;;;;;;5000383;28;20437;-91
2021/09/01 12:53:21;;;;;;;12.33;3.67;;;21.50;50.60;;;;;;4999290;28;20453;-92
2021/09/01 12:55:52;;;;;;;4.83;2.97;;;21.70;50.90;;;;;;4999383;28;20444;-92
2021/09/01 12:58:18;;;;;;;8.00;3.20;;;21.70;50.70;;;;;;5001044;28;20413;-91
2021/09/01 13:00:44;;;;;;;9.07;4.30;;;21.90;50.80;;;;;;4999964;28;20409;-91
2021/09/01 13:03:10;;;;;;;9.27;3.60;;;21.80;50.80;;;;;;5000881;28;20820;-91
2021/09/01 13:05:40;;;;;;;10.37;4.83;;;22.00;51.30;;;;;;5003211;28;20418;-92
2021/09/01 13:08:06;;;;;;;12.07;4.37;;;21.90;50.40;;;;;;5002154;28;20424;-91
2021/09/01 13:10:34;;;;;;;12.30;4.23;;;21.90;50.60;;;;;;5003949;28;20424;-92
2021/09/01 13:13:00;;;;;;;12.70;3.80;;;22.20;50.60;;;;;;5004769;28;20441;-91
2021/09/01 13:15:26;;;;;;;8.57;4.00;;;22.20;49.90;;;;;;5006367;28;20485;-92
2021/09/01 13:17:52;;;;;;;8.83;3.83;;;22.20;49.40;;;;;;5007631;28;20425;-91
2021/09/01 13:20:20;;;;;;;12.70;3.70;;;21.90;49.40;;;;;;5006001;28;20806;-91
2021/09/01 13:22:48;;;;;;;9.03;3.60;;;21.80;49.30;;;;;;5005960;28;20206;-92
2021/09/01 13:25:14;;;;;;;6.53;3.40;;;21.90;49.80;;;;;;5007511;28;20495;-92
2021/09/01 13:27:41;;;;;;;11.87;3.60;;;21.90;49.70;;;;;;5023763;28;20589;-92
2021/09/01 13:30:08;;;;;;;5.47;3.70;;;21.80;50.10;;;;;;5007952;28;20467;-91
2021/09/01 13:32:34;;;;;;;5.13;3.47;;;21.80;50.30;;;;;;5008326;28;20476;-92
2021/09/01 13:35:00;;;;;;;5.40;3.50;;;21.80;50.10;;;;;;5006446;28;20807;-92